Hauptseite
METAR-TAF:

METAR-TAF

Flughäfen :

Deer Lake, Neufundland und Labrador, Kanada

Breite: 49-13N, Länge: 057-24W, Höhe: 17 m

Beobachtung

Neuester Wetterbericht von vor 49 Minuten, um 01:00 UTC
Wind 3 kt aus Südwest, variierte zwischen Süd und West/Südwest
Temperatur 22°C
Luftfeuchtigkeit 83%
Luftdruck 1014 hPa
Sichtweite: 24.1 km
Durchbrochene Bewölkung in der Höhe von 4500 ft
Geschlossene Wolkendecke in der Höhe von 12000 ft

METAR: CYDF 170100Z 22003KT 190V250 15SM BKN045 OVC120 22/19 A2995 RMK SC5AC3 SLP142 DENSITY ALT 900FT

Zeit: 23:19 (01:49 UTC)

Prognose

Neuester Wetterbericht von vor 9 Minuten, um 01:40 UTC
Gültige Prognose vom 17 um 02 UTC bis 17 um 14 UTC
Wind 3 kt aus unterschiedlichen Richtungen
Sichtweite: 10 km
Durchbrochene Bewölkung in der Höhe von 4000 ft

TAF: CYDF 170140Z 1702/1714 VRB03KT P6SM BKN040 RMK NXT FCST BY 170800Z

Wetterbeobachtungen und Prognosen von mehr als 4000 Flughäfen (METAR und TAF Bericht).

Die verfügbaren Stationen werden durch gelbe und rote Markierungen auf der Karte dargestellt.

Führen Sie die Maus auf sie, um den Namen der Station zu sehen.

Darauf klicken, um die Beobachtung von Wetterbeobachtungen und Prognosen zu sehen.

Um die Karte zu ändern : klicken Sie auf den grünen Tasten mit einem schwarzen Kreuz Zum Vergrößern, auf den grünen Button mit einem Gedankenstrich zu verkleinern, oder auf die grünen Pfeile für benachbarte Karten.


METAR-TAF: